createdAt,value
2018-07-12T00:00:35.267Z,99.90
2018-07-12T00:03:02.607Z,99.90
2018-07-12T00:05:29.923Z,99.90
2018-07-12T00:07:57.269Z,99.90
2018-07-12T00:10:24.591Z,99.90
2018-07-12T00:12:51.937Z,99.90
2018-07-12T00:15:19.255Z,99.90
2018-07-12T00:17:46.596Z,99.90
2018-07-12T00:20:13.920Z,99.90
2018-07-12T00:22:41.619Z,99.90
2018-07-12T00:25:09.040Z,99.90
2018-07-12T00:27:36.429Z,99.90
2018-07-12T00:30:03.756Z,99.90
2018-07-12T00:32:31.102Z,99.90
2018-07-12T00:34:58.423Z,99.90
2018-07-12T00:37:25.768Z,99.90
2018-07-12T00:39:53.099Z,99.90
2018-07-12T00:42:20.778Z,99.90
2018-07-12T00:44:48.186Z,99.90
2018-07-12T00:47:15.527Z,99.90
2018-07-12T00:49:42.847Z,99.90
2018-07-12T00:52:10.192Z,99.90
2018-07-12T00:54:37.516Z,99.90
2018-07-12T00:57:04.863Z,99.90
2018-07-12T00:59:32.184Z,99.90
2018-07-12T01:01:59.523Z,99.90
2018-07-12T01:04:26.864Z,99.90
2018-07-12T01:06:54.292Z,99.90
2018-07-12T01:09:21.607Z,99.90
2018-07-12T01:11:48.941Z,99.90
2018-07-12T01:14:16.260Z,99.90
2018-07-12T01:16:43.604Z,99.90
2018-07-12T01:19:10.923Z,99.90
2018-07-12T01:21:38.304Z,99.90
2018-07-12T01:24:05.811Z,99.90
2018-07-12T01:26:33.596Z,99.90
2018-07-12T01:29:00.940Z,99.90
2018-07-12T01:31:28.257Z,99.90
2018-07-12T01:33:56.072Z,99.90
2018-07-12T01:36:23.456Z,99.90
2018-07-12T01:38:50.825Z,99.90
2018-07-12T01:41:18.145Z,99.90
2018-07-12T01:43:45.484Z,99.90
2018-07-12T01:46:12.805Z,99.90
2018-07-12T01:48:40.157Z,99.90
2018-07-12T01:51:07.480Z,99.90
2018-07-12T01:53:34.817Z,99.90
2018-07-12T01:56:02.135Z,99.90
2018-07-12T01:58:29.474Z,99.90
2018-07-12T02:00:56.796Z,99.90
2018-07-12T02:03:24.140Z,99.90
2018-07-12T02:05:51.456Z,99.90
2018-07-12T02:08:18.795Z,99.90
2018-07-12T02:13:19.716Z,99.90
2018-07-12T02:15:47.032Z,99.90
2018-07-12T02:18:14.367Z,99.90
2018-07-12T02:20:41.680Z,99.90
2018-07-12T02:23:09.019Z,99.90
2018-07-12T02:25:36.332Z,99.90
2018-07-12T02:28:03.672Z,99.90
2018-07-12T02:30:30.992Z,99.90
2018-07-12T02:32:58.327Z,99.90
2018-07-12T02:35:25.648Z,99.90
2018-07-12T02:37:52.995Z,99.90
2018-07-12T02:40:20.313Z,99.90
2018-07-12T02:42:47.651Z,99.90
2018-07-12T02:45:14.969Z,99.90
2018-07-12T02:47:42.312Z,99.90
2018-07-12T02:50:09.639Z,99.90
2018-07-12T02:52:36.983Z,99.90
2018-07-12T02:55:04.307Z,99.90
2018-07-12T02:57:31.652Z,99.90
2018-07-12T02:59:58.971Z,99.90
2018-07-12T03:02:26.317Z,99.90
2018-07-12T03:04:53.636Z,99.90
2018-07-12T03:07:21.005Z,99.90
2018-07-12T03:09:48.329Z,99.90
2018-07-12T03:12:15.656Z,99.90
2018-07-12T03:14:42.998Z,99.90
2018-07-12T03:17:10.322Z,99.90
2018-07-12T03:19:37.660Z,99.90
2018-07-12T03:22:04.979Z,99.90
2018-07-12T03:24:32.341Z,99.90
2018-07-12T03:26:59.668Z,99.90
2018-07-12T03:29:27.017Z,99.90
2018-07-12T03:31:54.344Z,99.90
2018-07-12T03:34:21.683Z,99.90
2018-07-12T03:36:49.006Z,99.90
2018-07-12T03:39:16.350Z,99.90
2018-07-12T03:41:43.664Z,99.90
2018-07-12T03:44:14.835Z,99.90
2018-07-12T03:46:42.155Z,99.90
2018-07-12T03:49:09.499Z,99.90
2018-07-12T03:51:36.820Z,99.90
2018-07-12T03:54:04.176Z,99.90
2018-07-12T03:56:31.498Z,99.90
2018-07-12T03:58:58.843Z,99.90
2018-07-12T04:01:26.160Z,99.90
2018-07-12T04:03:53.500Z,99.90
2018-07-12T04:06:20.823Z,99.90
2018-07-12T04:08:48.169Z,99.90
2018-07-12T04:13:43.091Z,99.90
2018-07-12T04:16:10.438Z,99.90
2018-07-12T04:18:37.767Z,99.90
2018-07-12T04:21:05.108Z,99.90
2018-07-12T04:23:32.436Z,99.90
2018-07-12T04:25:59.778Z,99.90
2018-07-12T04:28:27.095Z,99.90
2018-07-12T04:30:54.435Z,99.90
2018-07-12T04:33:21.753Z,99.90
2018-07-12T04:35:49.093Z,99.90
2018-07-12T04:38:16.412Z,99.90
2018-07-12T04:40:43.764Z,99.90
2018-07-12T04:43:11.088Z,99.90
2018-07-12T04:45:38.428Z,99.90
2018-07-12T04:48:05.744Z,99.90
2018-07-12T04:50:33.083Z,99.90
2018-07-12T04:53:00.399Z,99.90
2018-07-12T04:55:27.744Z,99.90
2018-07-12T04:57:55.055Z,99.90
2018-07-12T05:00:22.398Z,99.90
2018-07-12T05:02:49.726Z,99.90
2018-07-12T05:05:17.063Z,99.90
2018-07-12T05:07:44.384Z,99.90
2018-07-12T05:10:11.727Z,99.90
2018-07-12T05:12:39.052Z,99.90
2018-07-12T05:15:06.396Z,99.90
2018-07-12T05:17:33.712Z,99.90
2018-07-12T05:20:01.051Z,99.90
2018-07-12T05:22:28.370Z,99.90
2018-07-12T05:24:55.721Z,99.90
2018-07-12T05:27:23.040Z,99.90
2018-07-12T05:29:50.380Z,99.90
2018-07-12T05:32:18.046Z,99.90
2018-07-12T05:34:45.397Z,99.90
2018-07-12T05:37:13.822Z,99.90
2018-07-12T05:39:42.259Z,99.90
2018-07-12T05:42:10.692Z,99.90
2018-07-12T05:44:39.146Z,99.90
2018-07-12T05:47:07.585Z,98.30
2018-07-12T05:49:36.023Z,97.10
2018-07-12T05:52:04.488Z,95.80
2018-07-12T05:54:32.911Z,93.40
2018-07-12T05:57:01.367Z,91.50
2018-07-12T05:59:29.793Z,91.30
2018-07-12T06:02:09.498Z,90.10
2018-07-12T06:04:37.924Z,88.00
2018-07-12T06:07:06.419Z,85.20
2018-07-12T06:09:34.851Z,83.80
2018-07-12T06:12:03.340Z,82.10
2018-07-12T06:14:31.802Z,77.00
2018-07-12T06:17:00.272Z,76.50
2018-07-12T06:19:28.708Z,76.50
2018-07-12T06:21:57.191Z,76.90
2018-07-12T06:24:25.640Z,77.40
2018-07-12T06:26:54.682Z,78.80
2018-07-12T06:29:23.099Z,79.20
2018-07-12T06:31:51.573Z,78.40
2018-07-12T06:34:19.996Z,76.60
2018-07-12T06:36:48.499Z,74.70
2018-07-12T06:39:16.956Z,75.40
2018-07-12T06:41:45.404Z,76.30
2018-07-12T06:44:13.831Z,77.80
2018-07-12T06:46:42.267Z,76.60
2018-07-12T06:49:10.713Z,80.00
2018-07-12T06:51:39.165Z,81.20
2018-07-12T06:54:07.913Z,85.00
2018-07-12T06:56:36.363Z,86.90
2018-07-12T06:59:04.804Z,85.00
2018-07-12T07:01:34.044Z,87.10
2018-07-12T07:04:02.539Z,86.50
2018-07-12T07:06:31.092Z,84.60
2018-07-12T07:08:59.550Z,86.20
2018-07-12T07:11:28.017Z,89.80
2018-07-12T07:13:56.576Z,91.00
2018-07-12T07:16:25.040Z,92.50
2018-07-12T07:18:53.472Z,92.80
2018-07-12T07:21:21.961Z,94.00
2018-07-12T07:23:50.387Z,95.20
2018-07-12T07:26:18.900Z,96.80
2018-07-12T07:28:47.297Z,98.10
2018-07-12T07:31:15.731Z,98.30
2018-07-12T07:33:44.179Z,98.70
2018-07-12T07:36:12.615Z,99.40
2018-07-12T07:38:41.411Z,99.90
2018-07-12T07:41:09.839Z,99.80
2018-07-12T07:43:38.287Z,99.90
2018-07-12T07:46:06.776Z,98.50
2018-07-12T07:48:35.223Z,95.70
2018-07-12T07:51:03.683Z,95.00
2018-07-12T07:53:32.152Z,94.30
2018-07-12T07:56:00.584Z,94.00
2018-07-12T07:58:29.039Z,91.80
2018-07-12T08:00:57.475Z,91.00
2018-07-12T08:03:25.972Z,90.20
2018-07-12T08:05:54.488Z,89.70
2018-07-12T08:08:22.940Z,85.80
2018-07-12T08:10:51.376Z,88.40
2018-07-12T08:13:19.828Z,87.20
2018-07-12T08:15:48.251Z,81.30
2018-07-12T08:18:16.727Z,82.60
2018-07-12T08:20:45.164Z,82.40
2018-07-12T08:23:13.628Z,84.70
2018-07-12T08:25:42.059Z,83.00
2018-07-12T08:28:21.912Z,82.60
2018-07-12T08:30:50.371Z,83.20
2018-07-12T08:33:18.891Z,87.70
2018-07-12T08:35:47.444Z,86.30
2018-07-12T08:38:16.261Z,85.30
2018-07-12T08:40:44.739Z,84.40
2018-07-12T08:43:13.425Z,83.60
2018-07-12T08:45:42.093Z,81.80
2018-07-12T08:48:10.562Z,81.10
2018-07-12T08:50:39.011Z,79.10
2018-07-12T08:53:08.716Z,77.60
2018-07-12T08:55:37.156Z,76.20
2018-07-12T08:58:05.651Z,79.20
2018-07-12T09:00:34.103Z,77.80
2018-07-12T09:03:02.603Z,76.50
2018-07-12T09:05:31.031Z,80.50
2018-07-12T09:07:59.536Z,75.40
2018-07-12T09:10:27.955Z,74.50
2018-07-12T09:12:56.399Z,71.20
2018-07-12T09:15:24.831Z,70.20
2018-07-12T09:17:53.284Z,71.50
2018-07-12T09:20:21.707Z,74.90
2018-07-12T09:22:50.180Z,73.40
2018-07-12T09:25:18.649Z,71.20
2018-07-12T09:27:47.099Z,74.70
2018-07-12T09:30:15.721Z,75.20
2018-07-12T09:32:44.163Z,72.60
2018-07-12T09:35:12.617Z,70.80
2018-07-12T09:37:41.040Z,71.10
2018-07-12T09:40:09.511Z,73.00
2018-07-12T09:42:37.944Z,73.50
2018-07-12T09:45:06.413Z,71.50
2018-07-12T09:47:34.879Z,72.20
2018-07-12T09:50:03.363Z,72.00
2018-07-12T09:52:31.796Z,72.00
2018-07-12T09:55:00.530Z,76.30
2018-07-12T09:57:40.311Z,70.70
2018-07-12T10:00:08.833Z,71.00
2018-07-12T10:05:16.386Z,72.20
2018-07-12T10:07:55.003Z,69.50
2018-07-12T10:10:29.714Z,68.00
2018-07-12T10:13:03.764Z,68.80
2018-07-12T10:15:37.460Z,69.30
2018-07-12T10:18:11.348Z,71.00
2018-07-12T10:20:39.798Z,70.90
2018-07-12T10:23:08.206Z,73.00
2018-07-12T10:25:36.647Z,71.80
2018-07-12T10:28:05.131Z,73.00
2018-07-12T10:30:33.582Z,75.00
2018-07-12T10:33:02.147Z,74.20
2018-07-12T10:35:30.587Z,74.20
2018-07-12T10:37:59.004Z,72.80
2018-07-12T10:40:27.474Z,72.50
2018-07-12T10:45:25.089Z,70.30
2018-07-12T10:47:54.625Z,68.90
2018-07-12T10:50:23.089Z,68.10
2018-07-12T10:52:51.512Z,68.40
2018-07-12T10:57:48.095Z,68.30
2018-07-12T11:00:16.549Z,67.40
2018-07-12T11:02:45.126Z,66.70
2018-07-12T11:05:13.555Z,69.30
2018-07-12T11:07:42.051Z,68.10
2018-07-12T11:10:10.482Z,66.40
2018-07-12T11:12:38.928Z,70.70
2018-07-12T11:15:07.378Z,67.10
2018-07-12T11:17:35.815Z,68.90
2018-07-12T11:20:04.520Z,70.80
2018-07-12T11:22:33.000Z,71.40
2018-07-12T11:25:01.424Z,70.60
2018-07-12T11:27:29.879Z,71.30
2018-07-12T11:29:59.360Z,71.00
2018-07-12T11:32:27.811Z,72.50
2018-07-12T11:34:56.263Z,74.70
2018-07-12T11:37:26.663Z,74.50
2018-07-12T11:39:55.096Z,72.40
2018-07-12T11:42:23.784Z,72.40
2018-07-12T11:44:52.251Z,71.60
2018-07-12T11:47:21.116Z,71.90
2018-07-12T11:49:49.535Z,73.90
2018-07-12T11:52:18.286Z,72.60
2018-07-12T11:54:47.052Z,74.50
2018-07-12T11:57:15.508Z,74.30
2018-07-12T11:59:43.935Z,75.50
2018-07-12T12:02:12.400Z,76.60
2018-07-12T12:04:40.815Z,75.90
2018-07-12T12:07:09.689Z,78.80
2018-07-12T12:09:38.247Z,80.50
2018-07-12T12:12:06.733Z,77.30
2018-07-12T12:14:35.361Z,76.00
2018-07-12T12:17:03.851Z,79.40
2018-07-12T12:19:32.384Z,76.40
2018-07-12T12:22:01.094Z,79.10
2018-07-12T12:24:29.538Z,79.70
2018-07-12T12:26:57.991Z,80.30
2018-07-12T12:29:26.408Z,79.60
2018-07-12T12:34:22.982Z,78.50
2018-07-12T12:36:51.407Z,79.10
2018-07-12T12:39:19.851Z,78.70
2018-07-12T12:41:48.445Z,80.80
2018-07-12T12:44:16.884Z,81.90
2018-07-12T12:46:45.320Z,81.40
2018-07-12T12:49:13.772Z,78.10
2018-07-12T12:51:42.247Z,78.30
2018-07-12T12:54:10.697Z,80.00
2018-07-12T12:56:39.136Z,79.00
2018-07-12T12:59:07.591Z,79.90
2018-07-12T13:01:36.028Z,79.80
2018-07-12T13:04:04.532Z,81.30
2018-07-12T13:06:32.973Z,80.80
2018-07-12T13:09:01.435Z,80.80
2018-07-12T13:11:29.859Z,79.20
2018-07-12T13:13:58.316Z,79.20
2018-07-12T13:16:26.744Z,75.40
2018-07-12T13:18:55.207Z,73.90
2018-07-12T13:21:23.645Z,78.50
2018-07-12T13:23:52.096Z,70.80
2018-07-12T13:26:20.535Z,69.60
2018-07-12T13:28:49.011Z,70.50
2018-07-12T13:31:17.475Z,71.70
2018-07-12T13:33:47.148Z,72.70
2018-07-12T13:36:15.640Z,72.70
2018-07-12T13:38:44.089Z,72.60
2018-07-12T13:41:12.523Z,69.50
2018-07-12T13:43:40.967Z,69.60
2018-07-12T13:46:09.416Z,67.00
2018-07-12T13:48:37.880Z,67.90
2018-07-12T13:51:06.407Z,67.50
2018-07-12T13:53:34.870Z,67.00
2018-07-12T13:56:03.336Z,71.00
2018-07-12T13:58:31.801Z,69.60
2018-07-12T14:01:00.296Z,70.60
2018-07-12T14:03:28.727Z,70.30
2018-07-12T14:05:57.172Z,73.10
2018-07-12T14:08:26.442Z,71.40
2018-07-12T14:10:54.859Z,72.80
2018-07-12T14:13:23.315Z,67.50
2018-07-12T14:15:51.774Z,69.90
2018-07-12T14:18:20.189Z,68.50
2018-07-12T14:20:48.635Z,69.10
2018-07-12T14:23:17.072Z,71.10
2018-07-12T14:25:45.518Z,72.30
2018-07-12T14:28:13.935Z,72.90
2018-07-12T14:30:42.396Z,71.60
2018-07-12T14:33:10.823Z,68.70
2018-07-12T14:35:39.268Z,67.70
2018-07-12T14:38:07.951Z,67.40
2018-07-12T14:40:36.414Z,68.90
2018-07-12T14:43:04.857Z,69.30
2018-07-12T14:45:33.299Z,68.60
2018-07-12T14:48:01.740Z,69.10
2018-07-12T14:50:30.185Z,67.90
2018-07-12T14:52:58.615Z,71.00
2018-07-12T14:55:30.142Z,72.60
2018-07-12T14:57:58.577Z,71.60
2018-07-12T15:00:27.023Z,70.50
2018-07-12T15:02:55.557Z,69.20
2018-07-12T15:05:23.915Z,68.90
2018-07-12T15:07:52.348Z,67.30
2018-07-12T15:10:20.816Z,67.30
2018-07-12T15:12:49.431Z,67.50
2018-07-12T15:15:18.013Z,69.60
2018-07-12T15:17:46.468Z,69.00
2018-07-12T15:20:14.897Z,70.40
2018-07-12T15:22:43.340Z,69.60
2018-07-12T15:25:11.983Z,70.70
2018-07-12T15:27:40.446Z,71.50
2018-07-12T15:30:08.894Z,70.80
2018-07-12T15:32:37.348Z,70.10
2018-07-12T15:35:06.014Z,72.00
2018-07-12T15:37:34.473Z,72.80
2018-07-12T15:40:02.940Z,73.90
2018-07-12T15:42:31.403Z,74.70
2018-07-12T15:44:59.831Z,75.30
2018-07-12T15:47:28.279Z,75.00
2018-07-12T15:49:56.862Z,75.80
2018-07-12T15:54:53.497Z,74.50
2018-07-12T15:57:22.069Z,74.30
2018-07-12T15:59:50.549Z,75.60
2018-07-12T16:02:19.016Z,74.90
2018-07-12T16:04:47.445Z,74.60
2018-07-12T16:07:15.943Z,74.90
2018-07-12T16:09:44.399Z,76.30
2018-07-12T16:12:12.820Z,77.20
2018-07-12T16:14:41.255Z,76.30
2018-07-12T16:17:10.286Z,75.80
2018-07-12T16:19:38.894Z,74.80
2018-07-12T16:22:07.343Z,74.40
2018-07-12T16:24:35.955Z,75.60
2018-07-12T16:27:04.596Z,75.00
2018-07-12T16:29:33.037Z,75.10
2018-07-12T16:32:01.464Z,75.40
2018-07-12T16:34:29.919Z,75.60
2018-07-12T16:36:58.363Z,77.60
2018-07-12T16:39:26.819Z,78.20
2018-07-12T16:41:55.321Z,78.10
2018-07-12T16:44:23.776Z,76.60
2018-07-12T16:46:52.248Z,77.20
2018-07-12T16:49:20.687Z,78.30
2018-07-12T16:51:49.223Z,79.20
2018-07-12T16:54:17.744Z,78.30
2018-07-12T16:56:46.163Z,78.90
2018-07-12T16:59:14.603Z,78.70
2018-07-12T17:01:43.019Z,79.80
2018-07-12T17:04:11.452Z,79.70
2018-07-12T17:06:39.931Z,81.00
2018-07-12T17:09:08.745Z,82.00
2018-07-12T17:11:37.191Z,81.70
2018-07-12T17:14:05.671Z,80.20
2018-07-12T17:16:34.127Z,80.80
2018-07-12T17:19:02.585Z,81.70
2018-07-12T17:21:31.052Z,83.20
2018-07-12T17:23:59.475Z,83.70
2018-07-12T17:26:27.926Z,84.50
2018-07-12T17:28:56.348Z,85.40
2018-07-12T17:31:24.788Z,85.20
2018-07-12T17:33:53.228Z,85.60
2018-07-12T17:36:21.677Z,86.60
2018-07-12T17:38:50.104Z,88.40
2018-07-12T17:41:18.588Z,88.00
2018-07-12T17:43:47.012Z,90.60
2018-07-12T17:46:15.459Z,92.70
2018-07-12T17:48:43.884Z,93.70
2018-07-12T17:51:12.351Z,94.90
2018-07-12T17:53:40.779Z,96.30
2018-07-12T17:56:09.262Z,98.10
2018-07-12T17:58:37.746Z,99.60
2018-07-12T18:01:06.229Z,99.90
2018-07-12T18:03:34.680Z,99.90
2018-07-12T18:06:03.134Z,99.90
2018-07-12T18:08:31.606Z,99.90
2018-07-12T18:11:00.020Z,99.90
2018-07-12T18:13:28.469Z,99.90
2018-07-12T18:15:56.971Z,99.90
2018-07-12T18:18:25.352Z,99.90
2018-07-12T18:20:53.884Z,99.90
2018-07-12T18:23:22.310Z,99.90
2018-07-12T18:25:50.840Z,99.90
2018-07-12T18:28:19.320Z,99.90
2018-07-12T18:30:47.776Z,99.90
2018-07-12T18:33:16.215Z,99.90
2018-07-12T18:35:44.658Z,99.90
2018-07-12T18:38:13.128Z,99.90
2018-07-12T18:40:41.549Z,99.90
2018-07-12T18:43:10.020Z,99.90
2018-07-12T18:45:38.456Z,99.90
2018-07-12T18:48:06.870Z,99.90
2018-07-12T18:50:35.308Z,99.90
2018-07-12T18:53:03.732Z,99.90
2018-07-12T18:55:32.190Z,99.90
2018-07-12T18:58:00.619Z,99.90
2018-07-12T19:00:29.071Z,99.90
2018-07-12T19:02:57.508Z,99.90
2018-07-12T19:05:25.967Z,99.90
2018-07-12T19:07:54.399Z,99.90
2018-07-12T19:10:22.854Z,99.90
2018-07-12T19:12:51.279Z,99.90
2018-07-12T19:15:19.740Z,99.90
2018-07-12T19:17:48.166Z,99.90
2018-07-12T19:20:16.615Z,99.90
2018-07-12T19:22:45.044Z,99.90
2018-07-12T19:25:13.496Z,99.90
2018-07-12T19:27:41.917Z,99.90
2018-07-12T19:30:10.491Z,99.90
2018-07-12T19:32:38.895Z,99.90
2018-07-12T19:35:07.463Z,99.90
2018-07-12T19:37:35.780Z,99.90
2018-07-12T19:40:04.345Z,99.90
2018-07-12T19:42:32.762Z,99.90
2018-07-12T19:45:01.206Z,99.90
2018-07-12T19:47:29.663Z,99.90
2018-07-12T19:49:58.091Z,99.90
2018-07-12T19:52:26.536Z,99.90
2018-07-12T19:54:54.964Z,99.90
2018-07-12T19:57:23.442Z,99.90
2018-07-12T19:59:51.871Z,99.90
2018-07-12T20:02:20.339Z,99.90
2018-07-12T20:04:48.775Z,99.90
2018-07-12T20:07:17.244Z,99.90
2018-07-12T20:09:45.735Z,99.90
2018-07-12T20:12:14.192Z,99.90
2018-07-12T20:14:42.605Z,99.90
2018-07-12T20:17:11.058Z,99.90
2018-07-12T20:19:39.487Z,99.90
2018-07-12T20:22:07.955Z,99.90
2018-07-12T20:24:36.421Z,99.90
2018-07-12T20:27:04.858Z,99.90
2018-07-12T20:29:33.328Z,99.90
2018-07-12T20:32:01.804Z,99.90
2018-07-12T20:34:30.272Z,99.90
2018-07-12T20:36:58.728Z,99.90
2018-07-12T20:39:27.163Z,99.90
2018-07-12T20:41:55.593Z,99.90
2018-07-12T20:44:24.059Z,99.90
2018-07-12T20:46:52.520Z,99.90
2018-07-12T20:49:20.958Z,99.90
2018-07-12T20:51:49.387Z,99.90
2018-07-12T20:54:18.800Z,99.90
2018-07-12T20:56:47.220Z,99.90
2018-07-12T20:59:15.686Z,99.90
2018-07-12T21:01:44.124Z,99.90
2018-07-12T21:04:12.560Z,99.90
2018-07-12T21:06:40.995Z,99.90
2018-07-12T21:09:10.312Z,99.90
2018-07-12T21:11:38.752Z,99.90
2018-07-12T21:14:07.226Z,99.90
2018-07-12T21:16:35.647Z,99.90
2018-07-12T21:19:04.087Z,99.90
2018-07-12T21:21:32.546Z,99.90
2018-07-12T21:24:00.973Z,99.90
2018-07-12T21:26:29.424Z,99.90
2018-07-12T21:28:58.004Z,99.90
2018-07-12T21:31:26.451Z,99.90
2018-07-12T21:33:54.880Z,99.90
2018-07-12T21:36:23.345Z,99.90
2018-07-12T21:38:51.754Z,99.90
2018-07-12T21:41:20.229Z,99.90
2018-07-12T21:43:48.671Z,99.90
2018-07-12T21:46:17.102Z,99.90
2018-07-12T21:48:45.525Z,99.90
2018-07-12T21:51:13.964Z,99.90
2018-07-12T21:53:42.384Z,99.90
2018-07-12T21:56:10.815Z,99.90
2018-07-12T21:58:39.232Z,99.90
2018-07-12T22:01:07.682Z,99.90
2018-07-12T22:03:36.108Z,99.90
2018-07-12T22:06:04.626Z,99.90
2018-07-12T22:08:33.061Z,99.90
2018-07-12T22:11:04.747Z,99.90
2018-07-12T22:13:34.425Z,99.90
2018-07-12T22:16:02.884Z,99.90
2018-07-12T22:18:31.342Z,99.90
2018-07-12T22:20:59.779Z,99.90
2018-07-12T22:23:28.223Z,99.90
2018-07-12T22:25:56.663Z,99.90
2018-07-12T22:28:25.196Z,99.90
2018-07-12T22:30:53.623Z,99.90
2018-07-12T22:33:22.072Z,99.90
2018-07-12T22:35:50.501Z,99.90
2018-07-12T22:38:18.970Z,99.90
2018-07-12T22:40:47.395Z,99.90
2018-07-12T22:43:15.840Z,99.90
2018-07-12T22:45:44.277Z,99.90
2018-07-12T22:48:12.787Z,99.90
2018-07-12T22:50:41.215Z,99.90
2018-07-12T22:53:09.662Z,99.90
2018-07-12T22:55:38.096Z,99.90
2018-07-12T22:58:06.552Z,99.90
2018-07-12T23:00:34.990Z,99.90
2018-07-12T23:03:03.456Z,99.90
2018-07-12T23:05:31.936Z,99.90
2018-07-12T23:08:00.359Z,99.90
2018-07-12T23:10:28.807Z,99.90
2018-07-12T23:12:57.231Z,99.90
2018-07-12T23:15:26.500Z,99.90
2018-07-12T23:17:54.927Z,99.90
2018-07-12T23:20:23.394Z,99.90
2018-07-12T23:22:51.824Z,99.90
2018-07-12T23:25:20.292Z,99.90
2018-07-12T23:27:48.715Z,99.90
2018-07-12T23:30:17.195Z,99.90
2018-07-12T23:32:45.616Z,99.90
2018-07-12T23:35:14.079Z,99.90
2018-07-12T23:37:42.596Z,99.90
2018-07-12T23:40:11.031Z,99.90
2018-07-12T23:42:39.480Z,99.90
2018-07-12T23:45:07.931Z,99.90
2018-07-12T23:47:36.347Z,99.90
2018-07-12T23:50:04.848Z,99.90
2018-07-12T23:52:33.305Z,99.90
2018-07-12T23:55:01.751Z,99.90
2018-07-12T23:57:30.171Z,99.90
2018-07-12T23:59:58.589Z,99.90
